Terminal Aerodrome Forecast
Issued by NWS Wichita, KS

Home | Current Version | Previous Version | Text Only | Print | Product List | Glossary Off
Versions: 1 2 3 4 5 6 7 8 9 10 11 12 13 14 15 16 17 18 19

000
FTUS43 KICT 231120
TAFICT
TAF
KICT 231120Z 2312/2412 30012KT P6SM SCT060
     FM231500 33013KT P6SM BKN035 OVC050
     FM231700 34019G29KT P6SM BKN020 OVC040
      TEMPO 2321/2401 6SM -SNRA OVC015
     FM240100 34018G25KT P6SM OVC020=

USA.gov is the U.S. government's official web portal to all federal, state and local government web resources and services.